Time;durP1;ratioP1;P1;durP2;ratioP2;P2;SDS_P1;SDS_P2;PMS_P1;PMS_P2;Temp;Humidity;BMP_temperature;BMP_pressure;BME280_temperature;BME280_humidity;BME280_pressure;Samples;Min_cycle;Max_cycle;Signal;HPM_P1;HPM_P2
2023/12/27 00:02:03;;;;;;;7.37;2.10;;;8.50;99.90;;;;;;5054209;28;20424;-68
2023/12/27 00:04:29;;;;;;;6.53;2.10;;;8.60;99.90;;;;;;5051940;28;20198;-68
2023/12/27 00:06:55;;;;;;;2.33;1.50;;;8.60;99.90;;;;;;5051747;28;20173;-68
2023/12/27 00:09:21;;;;;;;2.70;2.03;;;8.50;99.90;;;;;;5051899;28;20595;-68
2023/12/27 00:11:46;;;;;;;4.30;2.07;;;8.50;99.90;;;;;;5051992;28;20416;-68
2023/12/27 00:14:12;;;;;;;2.70;1.90;;;8.50;99.90;;;;;;5051844;28;20320;-68
2023/12/27 00:16:37;;;;;;;6.03;2.10;;;8.50;99.90;;;;;;5051535;28;20169;-68
2023/12/27 00:19:03;;;;;;;2.70;2.00;;;8.50;99.90;;;;;;5051799;28;20197;-68
2023/12/27 00:21:28;;;;;;;3.13;1.73;;;8.60;99.90;;;;;;5051860;28;20174;-68
2023/12/27 00:23:54;;;;;;;2.37;2.10;;;8.60;99.90;;;;;;5051704;28;20200;-68
2023/12/27 00:26:20;;;;;;;6.40;2.50;;;8.60;99.90;;;;;;5051653;28;20272;-68
2023/12/27 00:28:45;;;;;;;2.93;2.03;;;8.60;99.90;;;;;;5051470;28;20526;-68
2023/12/27 00:31:11;;;;;;;3.60;1.90;;;8.60;99.90;;;;;;5051659;28;20174;-68
2023/12/27 00:33:37;;;;;;;3.50;1.90;;;8.60;99.90;;;;;;5054435;28;20162;-68
2023/12/27 00:36:02;;;;;;;2.67;1.83;;;8.60;99.90;;;;;;5055692;28;20170;-68
2023/12/27 00:38:28;;;;;;;3.37;1.80;;;8.60;99.90;;;;;;5055333;28;20189;-67
2023/12/27 00:40:53;;;;;;;2.70;2.30;;;8.60;99.90;;;;;;5055749;28;20586;-68
2023/12/27 00:43:19;;;;;;;3.93;2.27;;;8.60;99.90;;;;;;5055548;28;20173;-68
2023/12/27 00:45:44;;;;;;;4.30;2.00;;;8.50;99.90;;;;;;5055469;28;20194;-68
2023/12/27 00:48:10;;;;;;;4.33;2.03;;;8.60;99.90;;;;;;5055049;28;20695;-68
2023/12/27 00:50:35;;;;;;;2.13;1.87;;;8.60;99.90;;;;;;5055487;28;20548;-68
2023/12/27 00:53:01;;;;;;;3.07;2.87;;;8.60;99.90;;;;;;5055281;28;20166;-68
2023/12/27 00:55:26;;;;;;;3.87;1.90;;;8.60;99.90;;;;;;5055419;28;20681;-67
2023/12/27 00:57:52;;;;;;;4.53;2.00;;;8.50;99.90;;;;;;5054823;28;20550;-68
2023/12/27 01:00:18;;;;;;;2.57;1.93;;;8.60;99.90;;;;;;5055234;28;20231;-68
2023/12/27 01:02:43;;;;;;;2.23;1.60;;;8.50;99.90;;;;;;5055228;28;20202;-67
2023/12/27 01:05:09;;;;;;;1.77;1.67;;;8.60;99.90;;;;;;5055213;28;20201;-68
2023/12/27 01:07:34;;;;;;;2.00;1.80;;;8.50;99.90;;;;;;5054800;28;20193;-68
2023/12/27 01:10:00;;;;;;;2.00;1.90;;;8.50;99.90;;;;;;5055124;28;20169;-68
2023/12/27 01:12:26;;;;;;;4.23;1.63;;;8.50;99.90;;;;;;5055132;28;20188;-68
2023/12/27 01:14:51;;;;;;;2.07;1.97;;;8.60;99.90;;;;;;5055033;28;20680;-68
2023/12/27 01:17:17;;;;;;;4.27;1.70;;;8.60;99.90;;;;;;5054595;28;20548;-68
2023/12/27 01:19:42;;;;;;;2.43;1.60;;;8.50;99.90;;;;;;5054963;28;20184;-68
2023/12/27 01:22:08;;;;;;;2.70;2.20;;;8.50;99.90;;;;;;5054964;28;20542;-68
2023/12/27 01:24:33;;;;;;;4.23;1.90;;;8.40;99.90;;;;;;5054847;28;20599;-68
2023/12/27 01:26:59;;;;;;;3.53;1.87;;;8.40;99.90;;;;;;5054439;28;20197;-68
2023/12/27 01:29:24;;;;;;;3.43;1.73;;;8.30;99.90;;;;;;5054911;28;20189;-68
2023/12/27 01:31:50;;;;;;;2.50;2.03;;;8.30;99.90;;;;;;5054702;28;20639;-68
2023/12/27 01:34:15;;;;;;;2.23;1.90;;;8.40;99.90;;;;;;5054644;28;20177;-68
2023/12/27 01:36:41;;;;;;;2.47;2.27;;;8.30;99.90;;;;;;5054209;28;20174;-68
2023/12/27 01:39:07;;;;;;;2.63;2.20;;;8.40;99.90;;;;;;5054557;28;20231;-68
2023/12/27 01:41:32;;;;;;;2.60;2.40;;;8.40;99.90;;;;;;5054551;28;20208;-68
2023/12/27 01:43:58;;;;;;;4.10;2.27;;;8.40;99.90;;;;;;5053528;28;20645;-68
2023/12/27 01:46:24;;;;;;;1.93;1.73;;;8.40;99.90;;;;;;5054350;28;20216;-68
2023/12/27 01:48:50;;;;;;;2.67;2.27;;;8.40;99.90;;;;;;5054307;28;20435;-69
2023/12/27 01:51:17;;;;;;;3.97;2.50;;;8.40;99.90;;;;;;5053174;28;20784;-68
2023/12/27 01:53:42;;;;;;;10.50;4.37;;;8.30;99.90;;;;;;5054406;28;20182;-68
2023/12/27 01:56:08;;;;;;;10.40;3.63;;;8.40;99.90;;;;;;5054126;28;20843;-67
2023/12/27 01:58:34;;;;;;;2.60;2.40;;;8.40;99.90;;;;;;5053816;28;20251;-68
2023/12/27 02:01:00;;;;;;;3.83;2.13;;;8.40;99.90;;;;;;5054152;28;20545;-68
2023/12/27 02:03:26;;;;;;;2.30;2.10;;;8.40;99.90;;;;;;5054163;28;20176;-67
2023/12/27 02:05:53;;;;;;;3.40;1.70;;;8.40;99.90;;;;;;5054196;28;20209;-68
2023/12/27 02:08:20;;;;;;;3.10;2.27;;;8.40;99.90;;;;;;5053699;28;20714;-68
2023/12/27 02:10:46;;;;;;;1.97;1.87;;;8.40;99.90;;;;;;5054047;28;20420;-68
2023/12/27 02:13:12;;;;;;;3.03;2.03;;;8.30;99.90;;;;;;5053986;28;20408;-68
2023/12/27 02:15:37;;;;;;;2.50;1.97;;;8.30;99.90;;;;;;5053975;28;20477;-68
2023/12/27 02:18:05;;;;;;;9.40;2.43;;;8.20;99.90;;;;;;5053654;28;20202;-68
2023/12/27 02:20:31;;;;;;;4.73;2.03;;;8.20;99.90;;;;;;5053826;28;20204;-68
2023/12/27 02:22:57;;;;;;;4.03;2.53;;;8.00;99.90;;;;;;5053881;28;20795;-68
2023/12/27 02:25:23;;;;;;;2.07;1.97;;;8.00;99.90;;;;;;5053625;28;20197;-68
2023/12/27 02:27:49;;;;;;;2.10;1.60;;;8.00;99.90;;;;;;5053531;28;21078;-68
2023/12/27 02:30:22;;;;;;;4.87;1.73;;;8.10;99.90;;;;;;5053915;28;20174;-68
2023/12/27 02:32:49;;;;;;;5.50;2.87;;;8.10;99.90;;;;;;5053611;28;20271;-68
2023/12/27 02:35:15;;;;;;;4.53;2.93;;;8.10;99.90;;;;;;5052249;28;20929;-68
2023/12/27 02:37:40;;;;;;;5.10;2.53;;;8.10;99.90;;;;;;5053103;28;20447;-68
2023/12/27 02:40:07;;;;;;;3.90;1.97;;;8.00;99.90;;;;;;5053394;28;20925;-68
2023/12/27 02:42:32;;;;;;;2.37;2.17;;;8.00;99.90;;;;;;5053535;28;20201;-68
2023/12/27 02:44:58;;;;;;;2.60;1.57;;;8.00;99.90;;;;;;5053374;28;20560;-68
2023/12/27 02:47:23;;;;;;;2.60;1.90;;;8.00;99.90;;;;;;5053094;28;20162;-68
2023/12/27 02:49:49;;;;;;;3.50;1.60;;;8.10;99.90;;;;;;5053200;28;20166;-68
2023/12/27 02:52:14;;;;;;;2.13;1.67;;;8.10;99.90;;;;;;5053342;28;20168;-68
2023/12/27 02:54:40;;;;;;;2.50;2.30;;;8.10;99.90;;;;;;5053367;28;20215;-68
2023/12/27 02:57:05;;;;;;;4.23;2.47;;;8.00;99.90;;;;;;5052689;28;20181;-68
2023/12/27 02:59:31;;;;;;;4.37;2.47;;;8.00;99.90;;;;;;5053039;28;20238;-68
2023/12/27 03:01:56;;;;;;;2.17;1.60;;;7.90;99.90;;;;;;5053211;28;20177;-67
2023/12/27 03:04:22;;;;;;;2.23;1.93;;;7.90;99.90;;;;;;5051669;28;20197;-67
2023/12/27 03:06:47;;;;;;;4.90;2.57;;;7.90;99.90;;;;;;5052669;28;20166;-68
2023/12/27 03:09:13;;;;;;;4.23;2.23;;;7.90;99.90;;;;;;5052819;28;20188;-68
2023/12/27 03:11:38;;;;;;;3.37;2.30;;;8.00;99.90;;;;;;5052870;28;20666;-68
2023/12/27 03:14:04;;;;;;;5.53;2.60;;;8.00;99.90;;;;;;5053006;28;20272;-68
2023/12/27 03:16:30;;;;;;;3.73;2.73;;;7.90;99.90;;;;;;5052672;28;20247;-68
2023/12/27 03:18:56;;;;;;;2.20;2.00;;;7.90;99.90;;;;;;5052719;28;20195;-68
2023/12/27 03:21:22;;;;;;;3.30;2.07;;;8.00;99.90;;;;;;5052636;28;20170;-68
2023/12/27 03:23:48;;;;;;;2.23;2.00;;;8.00;99.90;;;;;;5052750;28;20818;-68
2023/12/27 03:26:13;;;;;;;2.83;2.53;;;8.10;99.90;;;;;;5052681;28;20174;-67
2023/12/27 03:28:39;;;;;;;3.23;2.20;;;8.10;99.90;;;;;;5052442;28;20798;-68
2023/12/27 03:31:04;;;;;;;4.37;2.70;;;8.20;99.90;;;;;;5052729;28;20175;-68
2023/12/27 03:33:30;;;;;;;2.20;1.90;;;8.20;99.90;;;;;;5052502;28;20169;-68
2023/12/27 03:35:55;;;;;;;3.80;2.33;;;8.20;99.90;;;;;;5052576;28;20166;-68
2023/12/27 03:38:21;;;;;;;2.87;2.20;;;8.20;99.90;;;;;;5052116;28;20546;-68
2023/12/27 03:40:47;;;;;;;5.20;2.30;;;8.30;99.90;;;;;;5052522;28;20185;-68
2023/12/27 03:43:12;;;;;;;4.40;2.03;;;8.20;99.90;;;;;;5052521;28;20170;-68
2023/12/27 03:45:38;;;;;;;2.93;2.63;;;8.20;99.90;;;;;;5052312;28;20206;-68
2023/12/27 03:48:04;;;;;;;4.60;2.57;;;8.20;99.90;;;;;;5052099;28;20262;-68
2023/12/27 03:50:29;;;;;;;2.70;2.10;;;8.20;99.90;;;;;;5052586;28;20639;-68
2023/12/27 03:52:55;;;;;;;5.10;3.00;;;8.20;99.90;;;;;;5052306;28;20185;-68
2023/12/27 03:55:24;;;;;;;3.40;2.43;;;8.10;99.90;;;;;;5052403;28;20173;-68
2023/12/27 03:57:50;;;;;;;4.80;2.93;;;8.10;99.90;;;;;;5051879;28;20452;-68
2023/12/27 04:00:15;;;;;;;6.00;2.70;;;8.10;99.90;;;;;;5052247;28;20786;-68
2023/12/27 04:02:41;;;;;;;5.73;2.90;;;8.10;99.90;;;;;;5052128;28;20166;-68
2023/12/27 04:05:07;;;;;;;4.10;2.70;;;8.10;99.90;;;;;;5052180;28;20728;-68
2023/12/27 04:07:32;;;;;;;2.70;2.13;;;8.20;99.90;;;;;;5051326;28;20190;-68
2023/12/27 04:09:58;;;;;;;3.10;2.77;;;8.30;99.90;;;;;;5052198;28;20170;-68
2023/12/27 04:12:23;;;;;;;4.10;1.97;;;8.30;99.90;;;;;;5052040;28;20170;-68
2023/12/27 04:14:49;;;;;;;4.10;2.80;;;8.30;99.90;;;;;;5052185;28;20234;-68
2023/12/27 04:17:15;;;;;;;2.27;2.07;;;8.30;99.90;;;;;;5051653;28;20252;-68
2023/12/27 04:19:40;;;;;;;2.70;2.50;;;8.30;99.90;;;;;;5052439;28;20180;-68
2023/12/27 04:22:06;;;;;;;3.60;2.73;;;8.30;99.90;;;;;;5051882;28;20420;-68
2023/12/27 04:24:32;;;;;;;6.00;5.00;;;8.20;99.90;;;;;;5052016;28;20232;-68
2023/12/27 04:26:57;;;;;;;4.20;2.90;;;8.30;99.90;;;;;;5051685;28;20260;-68
2023/12/27 04:29:23;;;;;;;7.57;3.83;;;8.30;99.90;;;;;;5050612;28;20193;-68
2023/12/27 04:31:48;;;;;;;5.40;2.60;;;8.30;99.90;;;;;;5051898;28;20174;-68
2023/12/27 04:34:14;;;;;;;4.83;2.60;;;8.30;99.90;;;;;;5052026;28;20239;-68
2023/12/27 04:36:39;;;;;;;3.03;2.70;;;8.20;99.90;;;;;;5051569;28;20170;-68
2023/12/27 04:39:06;;;;;;;3.23;2.93;;;8.10;99.90;;;;;;5052055;28;20189;-68
2023/12/27 04:41:32;;;;;;;4.50;3.03;;;8.10;99.90;;;;;;5052070;28;20268;-68
2023/12/27 04:43:57;;;;;;;6.80;3.30;;;8.00;99.90;;;;;;5051830;28;20546;-68
2023/12/27 04:46:23;;;;;;;5.43;4.03;;;8.00;99.90;;;;;;5051677;28;20202;-68
2023/12/27 04:48:48;;;;;;;6.10;3.40;;;8.00;99.90;;;;;;5051649;28;20197;-68
2023/12/27 04:51:14;;;;;;;11.10;3.50;;;8.00;99.90;;;;;;5052383;28;20173;-68
2023/12/27 04:53:39;;;;;;;7.97;3.30;;;7.90;99.90;;;;;;5051987;28;20170;-68
2023/12/27 04:56:05;;;;;;;5.57;3.40;;;7.80;99.90;;;;;;5051957;28;20696;-68
2023/12/27 04:58:35;;;;;;;5.60;3.50;;;7.80;99.90;;;;;;5051450;28;20206;-68
2023/12/27 05:01:04;;;;;;;3.80;3.40;;;7.70;99.90;;;;;;5052016;28;20172;-68
2023/12/27 05:03:34;;;;;;;9.57;3.27;;;7.70;99.90;;;;;;5051865;28;20412;-68
2023/12/27 05:05:59;;;;;;;7.00;4.00;;;7.60;99.90;;;;;;5051911;28;20423;-68
2023/12/27 05:08:25;;;;;;;3.70;3.00;;;7.60;99.90;;;;;;5051532;28;20964;-68
2023/12/27 05:10:50;;;;;;;3.83;3.43;;;7.50;99.90;;;;;;5051948;28;20174;-68
2023/12/27 05:13:16;;;;;;;3.67;2.77;;;7.40;99.90;;;;;;5051866;28;20179;-67
2023/12/27 05:15:41;;;;;;;5.50;3.30;;;7.40;99.90;;;;;;5051659;28;20724;-68
2023/12/27 05:18:07;;;;;;;5.67;3.10;;;7.30;99.90;;;;;;5051319;28;20189;-68
2023/12/27 05:20:32;;;;;;;6.20;4.07;;;7.20;99.90;;;;;;5053793;28;20623;-68
2023/12/27 05:22:58;;;;;;;6.37;4.30;;;7.10;99.90;;;;;;5055607;28;20170;-68
2023/12/27 05:25:23;;;;;;;6.10;4.47;;;7.10;99.90;;;;;;5055818;28;20270;-68
2023/12/27 05:27:49;;;;;;;4.27;3.87;;;7.00;99.90;;;;;;5055163;28;20190;-68
2023/12/27 05:30:14;;;;;;;6.87;4.17;;;7.00;99.90;;;;;;5053748;28;20631;-68
2023/12/27 05:32:40;;;;;;;5.50;3.80;;;7.00;99.90;;;;;;5055079;28;20697;-68
2023/12/27 05:35:06;;;;;;;4.40;3.80;;;7.00;99.90;;;;;;5055079;28;20170;-68
2023/12/27 05:37:31;;;;;;;4.63;3.13;;;6.90;99.90;;;;;;5054683;28;20339;-68
2023/12/27 05:39:57;;;;;;;6.70;3.53;;;6.90;99.90;;;;;;5054705;28;20419;-68
2023/12/27 05:42:23;;;;;;;6.97;4.50;;;6.90;99.90;;;;;;5054798;28;20177;-68
2023/12/27 05:44:48;;;;;;;4.10;3.70;;;6.90;99.90;;;;;;5054602;28;20228;-68
2023/12/27 05:47:14;;;;;;;5.90;4.10;;;6.90;99.90;;;;;;5054108;28;20933;-68
2023/12/27 05:49:39;;;;;;;3.90;3.50;;;6.90;99.90;;;;;;5054505;28;20177;-68
2023/12/27 05:52:05;;;;;;;5.53;3.80;;;6.90;99.90;;;;;;5055133;28;20170;-68
2023/12/27 05:54:30;;;;;;;5.00;3.50;;;6.90;99.90;;;;;;5055267;28;20176;-68
2023/12/27 05:56:56;;;;;;;4.67;3.40;;;6.90;99.90;;;;;;5054753;28;20909;-68
2023/12/27 05:59:21;;;;;;;4.23;3.70;;;6.90;99.90;;;;;;5084002;22;20701;-66
2023/12/27 06:01:49;;;;;;;6.90;3.80;;;6.90;99.90;;;;;;5074022;28;20175;-66
2023/12/27 06:04:15;;;;;;;4.90;4.30;;;6.90;99.90;;;;;;5073979;28;20672;-66
2023/12/27 06:06:40;;;;;;;5.77;5.23;;;6.80;99.90;;;;;;5073746;28;20422;-66
2023/12/27 06:09:06;;;;;;;7.07;5.23;;;6.70;99.90;;;;;;5073940;28;20427;-66
2023/12/27 06:11:31;;;;;;;5.93;4.70;;;6.70;99.90;;;;;;5073975;28;20180;-66
2023/12/27 06:13:57;;;;;;;6.73;4.00;;;6.70;99.90;;;;;;5073939;28;20180;-66
2023/12/27 06:16:22;;;;;;;5.93;4.60;;;6.70;99.90;;;;;;5073595;28;20173;-66
2023/12/27 06:18:48;;;;;;;7.37;4.87;;;6.70;99.90;;;;;;5073577;28;20708;-66
2023/12/27 06:21:21;;;;;;;6.60;4.90;;;6.70;99.90;;;;;;5073773;28;20173;-66
2023/12/27 06:23:46;;;;;;;4.87;4.47;;;6.70;99.90;;;;;;5073676;28;20248;-66
2023/12/27 06:26:12;;;;;;;5.00;4.50;;;6.70;99.90;;;;;;5073748;28;20893;-66
2023/12/27 06:28:37;;;;;;;8.60;4.93;;;6.60;99.90;;;;;;5073373;28;20238;-66
2023/12/27 06:31:03;;;;;;;4.80;4.30;;;6.60;99.90;;;;;;5072985;28;20563;-66
2023/12/27 06:33:29;;;;;;;9.07;5.50;;;6.60;99.90;;;;;;5073530;28;20173;-66
2023/12/27 06:35:55;;;;;;;6.20;5.00;;;6.60;99.90;;;;;;5073486;28;20165;-66
2023/12/27 06:38:20;;;;;;;8.30;5.00;;;6.50;99.90;;;;;;5073121;28;20453;-65
2023/12/27 06:40:46;;;;;;;9.80;5.10;;;6.50;99.90;;;;;;5055459;28;20584;-66
2023/12/27 06:43:11;;;;;;;4.70;4.20;;;6.50;99.90;;;;;;5073307;28;20184;-66
2023/12/27 06:45:37;;;;;;;6.53;5.60;;;6.50;99.90;;;;;;5073068;28;20201;-66
2023/12/27 06:48:03;;;;;;;8.43;4.43;;;6.50;99.90;;;;;;5072796;28;20208;-66
2023/12/27 06:50:29;;;;;;;8.83;4.73;;;6.50;99.90;;;;;;5073102;28;20172;-66
2023/12/27 06:52:55;;;;;;;5.70;4.97;;;6.50;99.90;;;;;;5073064;28;20410;-66
2023/12/27 06:55:21;;;;;;;6.87;4.77;;;6.60;99.90;;;;;;5073075;28;20169;-66
2023/12/27 06:57:47;;;;;;;7.93;4.00;;;6.60;99.90;;;;;;5072534;28;20443;-66
2023/12/27 07:00:13;;;;;;;5.17;4.00;;;6.60;99.90;;;;;;5072910;28;20695;-66
2023/12/27 07:02:39;;;;;;;8.27;4.50;;;6.60;99.90;;;;;;5072929;28;20169;-66
2023/12/27 07:05:06;;;;;;;6.40;4.60;;;6.50;99.90;;;;;;5072808;28;20457;-66
2023/12/27 07:07:32;;;;;;;5.07;4.50;;;6.40;99.90;;;;;;5072412;28;20415;-66
2023/12/27 07:09:57;;;;;;;7.00;4.53;;;6.40;99.90;;;;;;5072728;28;20480;-66
2023/12/27 07:12:23;;;;;;;5.63;4.30;;;6.50;99.90;;;;;;5072749;28;20165;-66
2023/12/27 07:14:49;;;;;;;10.67;4.27;;;6.50;99.90;;;;;;5072547;28;20169;-66
2023/12/27 07:17:15;;;;;;;7.53;6.27;;;6.60;99.90;;;;;;5072335;28;20423;-66
2023/12/27 07:19:40;;;;;;;9.30;5.90;;;6.70;99.90;;;;;;5072534;28;20196;-66
2023/12/27 07:22:06;;;;;;;7.70;4.27;;;6.70;99.90;;;;;;5072510;28;20180;-66
2023/12/27 07:24:31;;;;;;;3.80;3.50;;;6.70;99.90;;;;;;5072519;28;20197;-66
2023/12/27 07:26:57;;;;;;;10.50;8.80;;;6.80;99.90;;;;;;5072224;28;20535;-66
2023/12/27 07:29:22;;;;;;;6.43;4.70;;;6.70;99.90;;;;;;5072287;28;20239;-66
2023/12/27 07:31:49;;;;;;;5.17;4.63;;;6.70;99.90;;;;;;5072584;28;20175;-65
2023/12/27 07:34:16;;;;;;;6.20;4.27;;;6.60;99.90;;;;;;5072407;28;20165;-66
2023/12/27 07:36:41;;;;;;;4.70;3.97;;;6.60;99.90;;;;;;5072066;28;20423;-66
2023/12/27 07:39:09;;;;;;;5.40;3.90;;;6.70;99.90;;;;;;5072262;28;21217;-66
2023/12/27 07:41:35;;;;;;;6.40;4.40;;;6.70;99.90;;;;;;5071964;28;20192;-66
2023/12/27 07:44:00;;;;;;;7.10;5.00;;;6.70;99.90;;;;;;5071718;28;20513;-66
2023/12/27 07:46:26;;;;;;;5.47;4.40;;;6.70;99.90;;;;;;5071920;28;20204;-66
2023/12/27 07:48:51;;;;;;;7.43;3.90;;;6.70;99.90;;;;;;5072326;28;20220;-66
2023/12/27 07:51:17;;;;;;;7.53;5.00;;;6.70;99.90;;;;;;5072130;28;20621;-66
2023/12/27 07:53:43;;;;;;;6.57;4.33;;;6.70;99.90;;;;;;5072162;28;20165;-66
2023/12/27 07:56:10;;;;;;;4.70;4.13;;;6.70;99.90;;;;;;5054118;28;20748;-66
2023/12/27 07:58:36;;;;;;;4.63;3.87;;;6.80;99.90;;;;;;5071609;28;20200;-66
2023/12/27 08:01:01;;;;;;;10.80;3.50;;;6.90;99.90;;;;;;5072069;28;20894;-66
2023/12/27 08:03:27;;;;;;;9.17;3.57;;;7.00;99.90;;;;;;5072019;28;20184;-66
2023/12/27 08:05:53;;;;;;;4.10;3.70;;;7.00;99.90;;;;;;5071957;28;20275;-66
2023/12/27 08:08:18;;;;;;;5.07;3.80;;;7.10;99.90;;;;;;5071585;28;20692;-66
2023/12/27 08:10:44;;;;;;;4.63;4.17;;;7.10;99.90;;;;;;5071989;28;20173;-66
2023/12/27 08:13:09;;;;;;;9.27;5.80;;;7.10;99.90;;;;;;5071837;28;20169;-66
2023/12/27 08:15:35;;;;;;;5.23;4.73;;;7.20;99.90;;;;;;5071910;28;20691;-66
2023/12/27 08:18:03;;;;;;;9.67;4.07;;;7.20;99.90;;;;;;5071548;28;20719;-66
2023/12/27 08:20:29;;;;;;;3.70;3.30;;;7.20;99.90;;;;;;5071865;28;20823;-66
2023/12/27 08:22:55;;;;;;;5.97;4.10;;;7.30;99.90;;;;;;5071827;28;20423;-66
2023/12/27 08:25:21;;;;;;;4.80;3.63;;;7.40;99.90;;;;;;5071726;28;20451;-66
2023/12/27 08:27:46;;;;;;;4.40;4.00;;;7.50;99.90;;;;;;5071340;28;20558;-66
2023/12/27 08:30:13;;;;;;;7.63;4.30;;;7.50;99.90;;;;;;5071717;28;20512;-66
2023/12/27 08:32:38;;;;;;;6.33;4.33;;;7.60;99.90;;;;;;5072075;28;20658;-66
2023/12/27 08:35:04;;;;;;;7.10;3.90;;;7.60;99.90;;;;;;5071763;28;20539;-66
2023/12/27 08:37:30;;;;;;;7.40;4.77;;;7.70;99.90;;;;;;5071329;28;20173;-66
2023/12/27 08:39:55;;;;;;;6.10;5.60;;;7.80;99.90;;;;;;5071690;28;20911;-65
2023/12/27 08:42:21;;;;;;;6.13;4.33;;;8.00;99.90;;;;;;5071659;28;20185;-66
2023/12/27 08:44:47;;;;;;;7.43;4.60;;;8.00;99.90;;;;;;5071554;28;20200;-66
2023/12/27 08:47:12;;;;;;;5.90;4.40;;;8.10;99.90;;;;;;5071420;28;20177;-66
2023/12/27 08:49:38;;;;;;;4.60;4.20;;;8.00;99.90;;;;;;5071525;28;20272;-66
2023/12/27 08:52:04;;;;;;;10.60;5.57;;;7.90;99.90;;;;;;5053058;28;20180;-66
2023/12/27 08:54:29;;;;;;;6.07;5.40;;;8.00;99.90;;;;;;5073953;28;20610;-66
2023/12/27 08:56:55;;;;;;;7.33;5.40;;;7.80;99.90;;;;;;5057066;28;20183;-66
2023/12/27 08:59:21;;;;;;;8.33;5.80;;;7.60;99.90;;;;;;5075135;28;20213;-66
2023/12/27 09:01:47;;;;;;;9.73;3.63;;;7.60;99.90;;;;;;5075214;28;20922;-66
2023/12/27 09:04:13;;;;;;;7.93;4.57;;;7.50;99.90;;;;;;5075032;28;20195;-66
2023/12/27 09:06:38;;;;;;;6.40;3.97;;;7.60;99.90;;;;;;5074735;28;20495;-66
2023/12/27 09:09:04;;;;;;;8.23;3.90;;;7.60;99.90;;;;;;5074990;28;20205;-66
2023/12/27 09:11:29;;;;;;;6.77;3.47;;;8.00;99.90;;;;;;5074996;28;20192;-65
2023/12/27 09:13:55;;;;;;;5.63;3.90;;;8.70;99.90;;;;;;5075034;28;20357;-66
2023/12/27 09:16:20;;;;;;;5.77;4.10;;;8.90;99.90;;;;;;5074783;28;20652;-66
2023/12/27 09:18:46;;;;;;;6.70;5.60;;;9.20;99.90;;;;;;5074617;28;20548;-66
2023/12/27 09:21:11;;;;;;;5.33;3.83;;;9.60;99.90;;;;;;5074928;28;20173;-66
2023/12/27 09:23:37;;;;;;;7.77;4.00;;;10.30;99.90;;;;;;5075065;28;20244;-66
2023/12/27 09:26:02;;;;;;;4.83;4.33;;;11.20;99.90;;;;;;5074740;28;20228;-66
2023/12/27 09:28:28;;;;;;;6.50;4.17;;;11.50;99.90;;;;;;5074416;28;20246;-66
2023/12/27 09:30:54;;;;;;;6.40;4.50;;;11.80;99.90;;;;;;5074634;28;20204;-67
2023/12/27 09:33:20;;;;;;;5.67;4.60;;;12.50;99.90;;;;;;5074638;28;20457;-66
2023/12/27 09:35:45;;;;;;;8.13;4.77;;;13.50;99.90;;;;;;5074569;28;20173;-67
2023/12/27 09:38:10;;;;;;;5.90;4.67;;;14.10;99.90;;;;;;5074201;28;20242;-66
2023/12/27 09:40:36;;;;;;;7.37;4.20;;;14.50;99.90;;;;;;5074598;28;20218;-66
2023/12/27 09:43:06;;;;;;;5.23;4.30;;;14.70;99.90;;;;;;5074509;28;20619;-66
2023/12/27 09:45:35;;;;;;;4.10;3.70;;;16.70;99.90;;;;;;5074411;28;20680;-67
2023/12/27 09:48:02;;;;;;;4.33;3.10;;;17.90;99.90;;;;;;5074012;28;20928;-66
2023/12/27 09:50:28;;;;;;;3.90;3.60;;;17.30;98.70;;;;;;5074269;28;20925;-66
2023/12/27 09:52:55;;;;;;;4.40;3.60;;;17.20;97.60;;;;;;5073750;28;20411;-67
2023/12/27 09:55:20;;;;;;;3.50;2.60;;;17.10;96.90;;;;;;5074201;28;20908;-67
2023/12/27 09:57:48;;;;;;;4.20;3.00;;;17.50;95.50;;;;;;5073803;28;20442;-67
2023/12/27 10:00:15;;;;;;;4.23;3.37;;;17.50;93.90;;;;;;5074033;28;20173;-67
2023/12/27 10:02:44;;;;;;;5.13;3.23;;;18.30;90.50;;;;;;5074121;28;20419;-67
2023/12/27 10:05:12;;;;;;;3.10;2.80;;;17.70;85.10;;;;;;5073195;28;20469;-66
2023/12/27 10:07:39;;;;;;;3.80;2.93;;;16.70;87.50;;;;;;5073659;28;20411;-67
2023/12/27 10:10:09;;;;;;;4.00;3.43;;;16.70;87.70;;;;;;5073965;28;20424;-67
2023/12/27 10:12:35;;;;;;;3.57;3.27;;;16.90;86.30;;;;;;5073904;28;20411;-66
2023/12/27 10:15:00;;;;;;;4.47;3.03;;;17.70;84.30;;;;;;5073889;28;20415;-67
2023/12/27 10:17:27;;;;;;;3.70;3.40;;;18.00;80.50;;;;;;5073727;28;20423;-67
2023/12/27 10:19:52;;;;;;;3.53;2.60;;;18.10;78.10;;;;;;5073964;28;20165;-67
2023/12/27 10:22:18;;;;;;;3.43;3.13;;;16.90;81.60;;;;;;5073701;28;20430;-66
2023/12/27 10:24:43;;;;;;;3.53;2.33;;;15.60;86.80;;;;;;5073665;28;20193;-66
2023/12/27 10:27:10;;;;;;;3.40;2.70;;;14.40;94.00;;;;;;5073312;28;20173;-67
2023/12/27 10:29:36;;;;;;;3.90;3.33;;;13.40;99.00;;;;;;5073427;28;20211;-66
2023/12/27 10:32:03;;;;;;;8.00;3.50;;;12.60;99.90;;;;;;5073520;28;20503;-66
2023/12/27 10:34:29;;;;;;;4.53;3.23;;;12.80;99.90;;;;;;5073471;28;20418;-67
2023/12/27 10:36:56;;;;;;;3.10;2.90;;;13.60;99.90;;;;;;5073142;28;20426;-66
2023/12/27 10:39:22;;;;;;;5.10;2.83;;;14.90;94.30;;;;;;5073271;28;20460;-67
2023/12/27 10:41:50;;;;;;;3.73;3.30;;;15.80;91.00;;;;;;5073302;28;20415;-67
2023/12/27 10:44:19;;;;;;;3.30;3.00;;;16.50;85.10;;;;;;5073239;28;20462;-67
2023/12/27 10:46:45;;;;;;;2.60;2.40;;;17.60;76.00;;;;;;5073048;28;20469;-67
2023/12/27 10:49:13;;;;;;;2.50;2.30;;;18.30;67.30;;;;;;5073138;28;20431;-67
2023/12/27 10:51:40;;;;;;;4.27;3.17;;;18.90;63.70;;;;;;5073104;28;20173;-67
2023/12/27 10:54:07;;;;;;;3.30;2.73;;;19.40;61.40;;;;;;5073025;28;20418;-67
2023/12/27 10:56:38;;;;;;;2.60;2.13;;;19.70;58.60;;;;;;5054807;28;20421;-67
2023/12/27 10:59:07;;;;;;;6.17;2.50;;;20.70;53.40;;;;;;5072822;28;20450;-67
2023/12/27 11:01:34;;;;;;;3.90;2.67;;;20.70;52.50;;;;;;5072940;28;20422;-67
2023/12/27 11:04:03;;;;;;;4.40;2.63;;;21.90;49.50;;;;;;5072805;28;20422;-67
2023/12/27 11:06:30;;;;;;;3.00;2.20;;;21.20;46.30;;;;;;5072420;28;20426;-67
2023/12/27 11:08:56;;;;;;;2.80;2.50;;;19.30;48.00;;;;;;5072776;28;20793;-67
2023/12/27 11:11:24;;;;;;;3.83;2.43;;;17.60;52.30;;;;;;5072970;28;20430;-66
2023/12/27 11:13:52;;;;;;;7.10;3.03;;;16.10;54.80;;;;;;5072708;28;20765;-66
2023/12/27 11:16:21;;;;;;;3.03;2.60;;;15.10;58.50;;;;;;5072468;28;20428;-66
2023/12/27 11:18:48;;;;;;;3.57;3.30;;;15.40;60.70;;;;;;5072310;28;20439;-67
2023/12/27 11:21:15;;;;;;;3.37;3.07;;;17.40;55.90;;;;;;5072539;28;20415;-66
2023/12/27 11:23:40;;;;;;;3.23;3.03;;;19.20;53.30;;;;;;5072468;28;20411;-67
2023/12/27 11:26:06;;;;;;;2.57;1.60;;;20.50;49.10;;;;;;5072405;28;20508;-67
2023/12/27 11:28:33;;;;;;;2.90;2.63;;;21.40;45.90;;;;;;5072136;28;20185;-67
2023/12/27 11:31:00;;;;;;;3.20;2.33;;;21.00;44.40;;;;;;5072405;28;20218;-67
2023/12/27 11:33:25;;;;;;;2.37;2.17;;;20.30;45.40;;;;;;5072309;28;20422;-67
2023/12/27 11:35:54;;;;;;;3.77;2.33;;;21.00;45.00;;;;;;5072446;28;20415;-67
2023/12/27 11:38:24;;;;;;;3.23;2.07;;;21.70;42.50;;;;;;5071912;28;20331;-67
2023/12/27 11:40:57;;;;;;;2.60;2.40;;;21.80;42.10;;;;;;5072323;28;20479;-66
2023/12/27 11:43:25;;;;;;;2.53;2.33;;;20.80;42.10;;;;;;5072303;28;20420;-67
2023/12/27 11:46:01;;;;;;;3.17;2.50;;;20.40;42.70;;;;;;5072224;28;20454;-67
2023/12/27 11:48:35;;;;;;;4.57;3.00;;;20.40;43.10;;;;;;5071888;28;20471;-67
2023/12/27 11:51:21;;;;;;;2.70;2.50;;;19.10;43.50;;;;;;5072132;28;20427;-66
2023/12/27 11:53:47;;;;;;;2.77;2.50;;;18.70;45.20;;;;;;5071598;28;20919;-66
2023/12/27 11:56:13;;;;;;;2.63;2.43;;;17.70;45.40;;;;;;5071993;28;20415;-66
2023/12/27 11:58:41;;;;;;;3.57;2.67;;;17.70;46.60;;;;;;5100613;22;20254;-69
2023/12/27 12:01:25;;;;;;;3.27;2.97;;;17.20;46.90;;;;;;5092020;28;20253;-69
2023/12/27 12:04:13;;;;;;;2.80;2.60;;;16.80;48.80;;;;;;5092190;28;20421;-69
2023/12/27 12:06:46;;;;;;;2.87;2.67;;;17.40;50.50;;;;;;5091885;28;20974;-68
2023/12/27 12:09:12;;;;;;;4.63;2.77;;;17.90;50.60;;;;;;5092110;28;20437;-69
2023/12/27 12:11:43;;;;;;;6.07;4.17;;;18.00;49.70;;;;;;5092302;28;20424;-69
2023/12/27 12:14:09;;;;;;;3.63;3.33;;;17.80;51.30;;;;;;5092213;28;20843;-69
2023/12/27 12:16:36;;;;;;;3.30;3.10;;;17.60;52.20;;;;;;5091823;28;20445;-68
2023/12/27 12:19:08;;;;;;;4.13;3.73;;;16.70;53.80;;;;;;5091901;28;20446;-68
2023/12/27 12:21:34;;;;;;;2.70;2.40;;;16.40;55.60;;;;;;5092058;28;20816;-69
2023/12/27 12:24:09;;;;;;;2.90;2.50;;;16.10;56.70;;;;;;5092007;28;20792;-69
2023/12/27 12:26:38;;;;;;;4.23;2.70;;;16.40;55.90;;;;;;5091828;28;20441;-69
2023/12/27 12:29:07;;;;;;;2.73;2.53;;;17.00;55.50;;;;;;5093893;28;20437;-68
2023/12/27 12:31:34;;;;;;;4.80;3.13;;;17.00;54.50;;;;;;5096087;28;20914;-69
2023/12/27 12:33:59;;;;;;;3.17;2.50;;;17.50;54.50;;;;;;5096110;28;20753;-68
2023/12/27 12:36:25;;;;;;;3.17;2.53;;;17.90;53.40;;;;;;5095804;28;20467;-69
2023/12/27 12:38:52;;;;;;;3.20;2.90;;;18.30;52.20;;;;;;5095918;28;20184;-68
2023/12/27 12:41:18;;;;;;;5.53;2.90;;;18.00;51.70;;;;;;5095968;28;20425;-68
2023/12/27 12:43:44;;;;;;;5.60;3.33;;;17.70;52.00;;;;;;5095912;28;20424;-68
2023/12/27 12:46:13;;;;;;;2.47;2.10;;;17.60;52.60;;;;;;5095706;28;20961;-69
2023/12/27 12:48:39;;;;;;;3.00;2.70;;;17.60;51.10;;;;;;5095585;28;20267;-68